sensor_id;sensor_type;location;lat;lon;timestamp;P1;durP1;ratioP1;P2;durP2;ratioP2
19525;SDS011;9907;42.676;26.348;2023-01-01T00:01:37;50.13;;;37.20;;
19525;SDS011;9907;42.676;26.348;2023-01-01T00:04:05;49.97;;;38.37;;
19525;SDS011;9907;42.676;26.348;2023-01-01T00:06:35;49.57;;;37.70;;
19525;SDS011;9907;42.676;26.348;2023-01-01T00:09:00;49.13;;;37.90;;
19525;SDS011;9907;42.676;26.348;2023-01-01T00:11:44;57.43;;;42.70;;
19525;SDS011;9907;42.676;26.348;2023-01-01T00:14:10;55.03;;;41.40;;
19525;SDS011;9907;42.676;26.348;2023-01-01T00:16:35;53.60;;;41.80;;
19525;SDS011;9907;42.676;26.348;2023-01-01T00:19:01;57.07;;;43.90;;
19525;SDS011;9907;42.676;26.348;2023-01-01T00:21:27;56.20;;;42.67;;
19525;SDS011;9907;42.676;26.348;2023-01-01T00:23:52;56.97;;;43.20;;
19525;SDS011;9907;42.676;26.348;2023-01-01T00:26:18;54.57;;;42.90;;
19525;SDS011;9907;42.676;26.348;2023-01-01T00:28:43;53.67;;;42.70;;
19525;SDS011;9907;42.676;26.348;2023-01-01T00:31:11;54.13;;;41.70;;
19525;SDS011;9907;42.676;26.348;2023-01-01T00:33:42;53.03;;;43.50;;
19525;SDS011;9907;42.676;26.348;2023-01-01T00:36:17;58.37;;;44.73;;
19525;SDS011;9907;42.676;26.348;2023-01-01T00:38:43;53.17;;;42.63;;
19525;SDS011;9907;42.676;26.348;2023-01-01T00:41:10;62.37;;;44.43;;
19525;SDS011;9907;42.676;26.348;2023-01-01T00:43:37;56.43;;;42.67;;
19525;SDS011;9907;42.676;26.348;2023-01-01T00:46:03;58.03;;;44.70;;
19525;SDS011;9907;42.676;26.348;2023-01-01T00:48:30;54.80;;;42.27;;
19525;SDS011;9907;42.676;26.348;2023-01-01T00:50:56;58.63;;;42.17;;
19525;SDS011;9907;42.676;26.348;2023-01-01T00:53:21;55.53;;;42.47;;
19525;SDS011;9907;42.676;26.348;2023-01-01T00:55:47;58.20;;;43.77;;
19525;SDS011;9907;42.676;26.348;2023-01-01T00:58:14;60.90;;;45.00;;
19525;SDS011;9907;42.676;26.348;2023-01-01T01:00:41;60.67;;;46.70;;
19525;SDS011;9907;42.676;26.348;2023-01-01T01:03:07;58.03;;;44.40;;
19525;SDS011;9907;42.676;26.348;2023-01-01T01:05:33;58.03;;;45.43;;
19525;SDS011;9907;42.676;26.348;2023-01-01T01:08:01;57.07;;;45.37;;
19525;SDS011;9907;42.676;26.348;2023-01-01T01:10:26;60.37;;;43.70;;
19525;SDS011;9907;42.676;26.348;2023-01-01T01:12:52;56.70;;;43.03;;
19525;SDS011;9907;42.676;26.348;2023-01-01T01:15:18;59.30;;;43.60;;
19525;SDS011;9907;42.676;26.348;2023-01-01T01:17:43;57.33;;;44.60;;
19525;SDS011;9907;42.676;26.348;2023-01-01T01:20:09;56.87;;;44.27;;
19525;SDS011;9907;42.676;26.348;2023-01-01T01:22:35;55.17;;;41.23;;
19525;SDS011;9907;42.676;26.348;2023-01-01T01:25:01;57.27;;;41.03;;
19525;SDS011;9907;42.676;26.348;2023-01-01T01:27:26;57.00;;;41.77;;
19525;SDS011;9907;42.676;26.348;2023-01-01T01:29:52;56.20;;;40.90;;
19525;SDS011;9907;42.676;26.348;2023-01-01T01:32:18;55.63;;;40.20;;
19525;SDS011;9907;42.676;26.348;2023-01-01T01:34:44;56.27;;;42.07;;
19525;SDS011;9907;42.676;26.348;2023-01-01T01:37:10;55.67;;;41.30;;
19525;SDS011;9907;42.676;26.348;2023-01-01T01:39:36;54.67;;;41.07;;
19525;SDS011;9907;42.676;26.348;2023-01-01T01:42:01;54.87;;;41.73;;
19525;SDS011;9907;42.676;26.348;2023-01-01T01:47:15;51.17;;;38.53;;
19525;SDS011;9907;42.676;26.348;2023-01-01T01:49:54;47.00;;;36.87;;
19525;SDS011;9907;42.676;26.348;2023-01-01T01:52:26;52.63;;;39.20;;
19525;SDS011;9907;42.676;26.348;2023-01-01T01:54:53;56.17;;;42.67;;
19525;SDS011;9907;42.676;26.348;2023-01-01T01:57:19;56.23;;;41.73;;
19525;SDS011;9907;42.676;26.348;2023-01-01T01:59:47;53.43;;;39.97;;
19525;SDS011;9907;42.676;26.348;2023-01-01T02:02:37;50.53;;;39.67;;
19525;SDS011;9907;42.676;26.348;2023-01-01T02:05:15;45.37;;;37.93;;
19525;SDS011;9907;42.676;26.348;2023-01-01T02:07:43;51.10;;;39.43;;
19525;SDS011;9907;42.676;26.348;2023-01-01T02:10:09;52.10;;;41.67;;
19525;SDS011;9907;42.676;26.348;2023-01-01T02:12:34;49.20;;;39.73;;
19525;SDS011;9907;42.676;26.348;2023-01-01T02:15:00;55.20;;;40.17;;
19525;SDS011;9907;42.676;26.348;2023-01-01T02:25:24;56.10;;;41.53;;
19525;SDS011;9907;42.676;26.348;2023-01-01T02:28:07;52.67;;;39.47;;
19525;SDS011;9907;42.676;26.348;2023-01-01T02:30:48;55.23;;;39.47;;
19525;SDS011;9907;42.676;26.348;2023-01-01T02:33:17;52.80;;;39.83;;
19525;SDS011;9907;42.676;26.348;2023-01-01T02:35:57;54.13;;;39.23;;
19525;SDS011;9907;42.676;26.348;2023-01-01T02:41:24;53.33;;;38.77;;
19525;SDS011;9907;42.676;26.348;2023-01-01T02:44:08;52.03;;;39.10;;
19525;SDS011;9907;42.676;26.348;2023-01-01T02:46:35;58.67;;;43.40;;
19525;SDS011;9907;42.676;26.348;2023-01-01T02:49:01;53.20;;;39.07;;
19525;SDS011;9907;42.676;26.348;2023-01-01T02:51:35;48.23;;;37.67;;
19525;SDS011;9907;42.676;26.348;2023-01-01T03:02:28;49.03;;;37.03;;
19525;SDS011;9907;42.676;26.348;2023-01-01T03:05:17;47.30;;;36.83;;
19525;SDS011;9907;42.676;26.348;2023-01-01T03:10:36;51.50;;;38.10;;
19525;SDS011;9907;42.676;26.348;2023-01-01T03:16:32;50.07;;;39.03;;
19525;SDS011;9907;42.676;26.348;2023-01-01T03:19:23;42.33;;;33.27;;
19525;SDS011;9907;42.676;26.348;2023-01-01T03:24:32;50.90;;;34.63;;
19525;SDS011;9907;42.676;26.348;2023-01-01T03:27:08;45.67;;;34.57;;
19525;SDS011;9907;42.676;26.348;2023-01-01T03:29:39;47.93;;;34.47;;
19525;SDS011;9907;42.676;26.348;2023-01-01T03:32:06;42.87;;;32.70;;
19525;SDS011;9907;42.676;26.348;2023-01-01T03:34:39;42.10;;;33.30;;
19525;SDS011;9907;42.676;26.348;2023-01-01T03:37:14;39.43;;;31.47;;
19525;SDS011;9907;42.676;26.348;2023-01-01T03:39:48;43.53;;;31.77;;
19525;SDS011;9907;42.676;26.348;2023-01-01T03:44:45;41.40;;;30.87;;
19525;SDS011;9907;42.676;26.348;2023-01-01T03:47:14;39.13;;;30.57;;
19525;SDS011;9907;42.676;26.348;2023-01-01T03:49:41;36.90;;;29.47;;
19525;SDS011;9907;42.676;26.348;2023-01-01T04:00:18;38.90;;;30.47;;
19525;SDS011;9907;42.676;26.348;2023-01-01T04:02:57;39.57;;;30.03;;
19525;SDS011;9907;42.676;26.348;2023-01-01T04:05:25;39.80;;;31.03;;
19525;SDS011;9907;42.676;26.348;2023-01-01T04:07:53;38.67;;;30.77;;
19525;SDS011;9907;42.676;26.348;2023-01-01T04:10:19;44.57;;;30.00;;
19525;SDS011;9907;42.676;26.348;2023-01-01T04:12:47;38.53;;;29.73;;
19525;SDS011;9907;42.676;26.348;2023-01-01T04:15:15;37.57;;;28.53;;
19525;SDS011;9907;42.676;26.348;2023-01-01T04:17:42;39.50;;;27.73;;
19525;SDS011;9907;42.676;26.348;2023-01-01T04:20:07;36.07;;;27.37;;
19525;SDS011;9907;42.676;26.348;2023-01-01T04:22:34;36.60;;;28.13;;
19525;SDS011;9907;42.676;26.348;2023-01-01T04:25:00;32.93;;;27.80;;
19525;SDS011;9907;42.676;26.348;2023-01-01T04:27:25;35.30;;;28.53;;
19525;SDS011;9907;42.676;26.348;2023-01-01T04:29:51;35.27;;;27.70;;
19525;SDS011;9907;42.676;26.348;2023-01-01T04:32:16;35.80;;;27.80;;
19525;SDS011;9907;42.676;26.348;2023-01-01T04:34:42;38.80;;;28.90;;
19525;SDS011;9907;42.676;26.348;2023-01-01T04:37:07;42.73;;;31.87;;
19525;SDS011;9907;42.676;26.348;2023-01-01T04:39:33;40.77;;;30.57;;
19525;SDS011;9907;42.676;26.348;2023-01-01T04:41:58;45.07;;;31.67;;
19525;SDS011;9907;42.676;26.348;2023-01-01T04:44:23;41.13;;;30.93;;
19525;SDS011;9907;42.676;26.348;2023-01-01T04:46:49;38.77;;;30.47;;
19525;SDS011;9907;42.676;26.348;2023-01-01T04:49:14;40.87;;;31.90;;
19525;SDS011;9907;42.676;26.348;2023-01-01T04:51:40;40.17;;;31.53;;
19525;SDS011;9907;42.676;26.348;2023-01-01T04:54:05;38.63;;;29.23;;
19525;SDS011;9907;42.676;26.348;2023-01-01T04:56:31;38.83;;;31.13;;
19525;SDS011;9907;42.676;26.348;2023-01-01T04:58:56;40.90;;;31.23;;
19525;SDS011;9907;42.676;26.348;2023-01-01T05:01:23;35.43;;;28.37;;
19525;SDS011;9907;42.676;26.348;2023-01-01T05:03:51;39.80;;;30.47;;
19525;SDS011;9907;42.676;26.348;2023-01-01T05:06:17;39.23;;;31.40;;
19525;SDS011;9907;42.676;26.348;2023-01-01T05:08:44;41.03;;;32.97;;
19525;SDS011;9907;42.676;26.348;2023-01-01T05:11:11;40.93;;;30.37;;
19525;SDS011;9907;42.676;26.348;2023-01-01T05:13:40;41.93;;;32.97;;
19525;SDS011;9907;42.676;26.348;2023-01-01T05:16:09;44.67;;;34.17;;
19525;SDS011;9907;42.676;26.348;2023-01-01T05:18:36;41.33;;;31.90;;
19525;SDS011;9907;42.676;26.348;2023-01-01T05:21:06;39.87;;;32.07;;
19525;SDS011;9907;42.676;26.348;2023-01-01T05:23:34;37.83;;;29.47;;
19525;SDS011;9907;42.676;26.348;2023-01-01T05:26:00;40.33;;;31.40;;
19525;SDS011;9907;42.676;26.348;2023-01-01T05:28:33;36.80;;;29.13;;
19525;SDS011;9907;42.676;26.348;2023-01-01T05:31:03;41.60;;;31.77;;
19525;SDS011;9907;42.676;26.348;2023-01-01T05:33:30;38.73;;;31.10;;
19525;SDS011;9907;42.676;26.348;2023-01-01T05:35:55;35.50;;;29.20;;
19525;SDS011;9907;42.676;26.348;2023-01-01T05:38:21;44.67;;;32.30;;
19525;SDS011;9907;42.676;26.348;2023-01-01T05:40:46;41.67;;;32.00;;
19525;SDS011;9907;42.676;26.348;2023-01-01T05:43:11;40.60;;;31.07;;
19525;SDS011;9907;42.676;26.348;2023-01-01T05:45:37;39.10;;;30.77;;
19525;SDS011;9907;42.676;26.348;2023-01-01T05:48:03;40.77;;;30.47;;
19525;SDS011;9907;42.676;26.348;2023-01-01T05:50:31;45.83;;;34.70;;
19525;SDS011;9907;42.676;26.348;2023-01-01T05:52:56;40.70;;;31.83;;
19525;SDS011;9907;42.676;26.348;2023-01-01T05:55:22;36.23;;;30.87;;
19525;SDS011;9907;42.676;26.348;2023-01-01T05:57:47;41.20;;;31.73;;
19525;SDS011;9907;42.676;26.348;2023-01-01T06:00:13;39.83;;;30.83;;
19525;SDS011;9907;42.676;26.348;2023-01-01T06:02:38;40.50;;;30.33;;
19525;SDS011;9907;42.676;26.348;2023-01-01T06:05:04;39.87;;;31.33;;
19525;SDS011;9907;42.676;26.348;2023-01-01T06:07:29;41.60;;;32.57;;
19525;SDS011;9907;42.676;26.348;2023-01-01T06:09:55;44.37;;;33.73;;
19525;SDS011;9907;42.676;26.348;2023-01-01T06:12:20;45.20;;;33.90;;
19525;SDS011;9907;42.676;26.348;2023-01-01T06:14:46;42.37;;;32.60;;
19525;SDS011;9907;42.676;26.348;2023-01-01T06:17:11;42.77;;;32.47;;
19525;SDS011;9907;42.676;26.348;2023-01-01T06:19:37;38.30;;;30.17;;
19525;SDS011;9907;42.676;26.348;2023-01-01T06:22:02;39.33;;;31.07;;
19525;SDS011;9907;42.676;26.348;2023-01-01T06:24:27;40.17;;;31.07;;
19525;SDS011;9907;42.676;26.348;2023-01-01T06:26:53;42.60;;;30.37;;
19525;SDS011;9907;42.676;26.348;2023-01-01T06:29:18;34.83;;;28.60;;
19525;SDS011;9907;42.676;26.348;2023-01-01T06:31:44;37.27;;;29.60;;
19525;SDS011;9907;42.676;26.348;2023-01-01T06:34:09;34.87;;;27.53;;
19525;SDS011;9907;42.676;26.348;2023-01-01T06:36:34;36.13;;;28.93;;
19525;SDS011;9907;42.676;26.348;2023-01-01T06:39:00;34.37;;;28.73;;
19525;SDS011;9907;42.676;26.348;2023-01-01T06:41:27;34.97;;;29.07;;
19525;SDS011;9907;42.676;26.348;2023-01-01T06:43:56;37.97;;;30.20;;
19525;SDS011;9907;42.676;26.348;2023-01-01T06:49:00;37.93;;;29.23;;
19525;SDS011;9907;42.676;26.348;2023-01-01T06:51:32;36.50;;;29.47;;
19525;SDS011;9907;42.676;26.348;2023-01-01T06:54:02;34.50;;;27.87;;
19525;SDS011;9907;42.676;26.348;2023-01-01T06:56:28;35.30;;;28.63;;
19525;SDS011;9907;42.676;26.348;2023-01-01T06:58:54;40.63;;;30.57;;
19525;SDS011;9907;42.676;26.348;2023-01-01T07:01:21;42.17;;;32.00;;
19525;SDS011;9907;42.676;26.348;2023-01-01T07:03:51;35.83;;;29.67;;
19525;SDS011;9907;42.676;26.348;2023-01-01T07:06:18;38.07;;;30.30;;
19525;SDS011;9907;42.676;26.348;2023-01-01T07:08:44;36.53;;;30.30;;
19525;SDS011;9907;42.676;26.348;2023-01-01T07:11:09;41.67;;;30.77;;
19525;SDS011;9907;42.676;26.348;2023-01-01T07:13:35;36.47;;;28.83;;
19525;SDS011;9907;42.676;26.348;2023-01-01T07:16:00;31.77;;;27.00;;
19525;SDS011;9907;42.676;26.348;2023-01-01T07:18:26;35.33;;;28.10;;
19525;SDS011;9907;42.676;26.348;2023-01-01T07:20:55;34.77;;;27.20;;
19525;SDS011;9907;42.676;26.348;2023-01-01T07:23:23;33.70;;;29.17;;
19525;SDS011;9907;42.676;26.348;2023-01-01T07:25:50;32.87;;;27.33;;
19525;SDS011;9907;42.676;26.348;2023-01-01T07:28:16;34.37;;;27.90;;
19525;SDS011;9907;42.676;26.348;2023-01-01T07:30:42;33.03;;;27.73;;
19525;SDS011;9907;42.676;26.348;2023-01-01T07:33:11;27.70;;;24.63;;
19525;SDS011;9907;42.676;26.348;2023-01-01T07:35:38;35.03;;;26.83;;
19525;SDS011;9907;42.676;26.348;2023-01-01T07:38:05;31.40;;;26.07;;
19525;SDS011;9907;42.676;26.348;2023-01-01T07:40:31;30.10;;;26.43;;
19525;SDS011;9907;42.676;26.348;2023-01-01T07:42:56;29.13;;;25.53;;
19525;SDS011;9907;42.676;26.348;2023-01-01T07:45:22;32.23;;;25.50;;
19525;SDS011;9907;42.676;26.348;2023-01-01T07:47:49;33.37;;;26.40;;
19525;SDS011;9907;42.676;26.348;2023-01-01T07:50:17;29.43;;;26.23;;
19525;SDS011;9907;42.676;26.348;2023-01-01T07:52:43;31.40;;;26.40;;
19525;SDS011;9907;42.676;26.348;2023-01-01T07:55:13;29.43;;;26.03;;
19525;SDS011;9907;42.676;26.348;2023-01-01T07:57:40;30.97;;;27.00;;
19525;SDS011;9907;42.676;26.348;2023-01-01T08:00:06;30.00;;;24.93;;
19525;SDS011;9907;42.676;26.348;2023-01-01T08:02:33;30.43;;;26.50;;
19525;SDS011;9907;42.676;26.348;2023-01-01T08:04:58;31.57;;;26.73;;
19525;SDS011;9907;42.676;26.348;2023-01-01T08:07:24;33.40;;;29.13;;
19525;SDS011;9907;42.676;26.348;2023-01-01T08:09:49;37.67;;;32.27;;
19525;SDS011;9907;42.676;26.348;2023-01-01T08:12:14;31.87;;;28.37;;
19525;SDS011;9907;42.676;26.348;2023-01-01T08:14:40;34.17;;;28.60;;
19525;SDS011;9907;42.676;26.348;2023-01-01T08:17:05;32.47;;;28.90;;
19525;SDS011;9907;42.676;26.348;2023-01-01T08:19:31;35.37;;;27.17;;
19525;SDS011;9907;42.676;26.348;2023-01-01T08:21:56;29.40;;;26.20;;
19525;SDS011;9907;42.676;26.348;2023-01-01T08:24:22;33.53;;;29.07;;
19525;SDS011;9907;42.676;26.348;2023-01-01T08:26:47;34.67;;;30.97;;
19525;SDS011;9907;42.676;26.348;2023-01-01T08:29:14;39.93;;;32.30;;
19525;SDS011;9907;42.676;26.348;2023-01-01T08:31:40;40.47;;;33.13;;
19525;SDS011;9907;42.676;26.348;2023-01-01T08:34:06;36.50;;;31.90;;
19525;SDS011;9907;42.676;26.348;2023-01-01T08:36:31;35.50;;;29.90;;
19525;SDS011;9907;42.676;26.348;2023-01-01T08:38:57;33.30;;;27.80;;
19525;SDS011;9907;42.676;26.348;2023-01-01T08:41:23;33.77;;;27.17;;
19525;SDS011;9907;42.676;26.348;2023-01-01T08:43:48;29.87;;;25.33;;
19525;SDS011;9907;42.676;26.348;2023-01-01T08:46:14;29.40;;;24.80;;
19525;SDS011;9907;42.676;26.348;2023-01-01T08:48:39;25.17;;;21.97;;
19525;SDS011;9907;42.676;26.348;2023-01-01T08:51:05;28.73;;;22.20;;
19525;SDS011;9907;42.676;26.348;2023-01-01T08:53:31;23.53;;;21.03;;
19525;SDS011;9907;42.676;26.348;2023-01-01T08:56:04;23.03;;;20.43;;
19525;SDS011;9907;42.676;26.348;2023-01-01T08:58:31;26.00;;;20.73;;
19525;SDS011;9907;42.676;26.348;2023-01-01T09:00:57;26.23;;;21.80;;
19525;SDS011;9907;42.676;26.348;2023-01-01T09:03:26;23.50;;;20.43;;
19525;SDS011;9907;42.676;26.348;2023-01-01T09:05:52;23.33;;;19.90;;
19525;SDS011;9907;42.676;26.348;2023-01-01T09:08:18;22.57;;;19.90;;
19525;SDS011;9907;42.676;26.348;2023-01-01T09:10:44;25.27;;;19.40;;
19525;SDS011;9907;42.676;26.348;2023-01-01T09:13:11;21.63;;;19.00;;
19525;SDS011;9907;42.676;26.348;2023-01-01T09:15:38;24.00;;;18.73;;
19525;SDS011;9907;42.676;26.348;2023-01-01T09:18:04;22.80;;;19.13;;
19525;SDS011;9907;42.676;26.348;2023-01-01T09:20:30;21.50;;;18.73;;
19525;SDS011;9907;42.676;26.348;2023-01-01T09:22:55;20.70;;;18.03;;
19525;SDS011;9907;42.676;26.348;2023-01-01T09:25:21;20.93;;;18.40;;
19525;SDS011;9907;42.676;26.348;2023-01-01T09:27:46;23.30;;;18.90;;
19525;SDS011;9907;42.676;26.348;2023-01-01T09:30:12;25.83;;;20.30;;
19525;SDS011;9907;42.676;26.348;2023-01-01T09:32:38;24.43;;;19.80;;
19525;SDS011;9907;42.676;26.348;2023-01-01T09:35:03;20.47;;;17.70;;
19525;SDS011;9907;42.676;26.348;2023-01-01T09:37:29;19.97;;;17.73;;
19525;SDS011;9907;42.676;26.348;2023-01-01T09:39:55;19.83;;;17.00;;
19525;SDS011;9907;42.676;26.348;2023-01-01T09:47:46;14.97;;;13.37;;
19525;SDS011;9907;42.676;26.348;2023-01-01T09:50:22;16.13;;;13.70;;
19525;SDS011;9907;42.676;26.348;2023-01-01T09:52:56;17.53;;;14.00;;
19525;SDS011;9907;42.676;26.348;2023-01-01T09:55:28;19.83;;;16.40;;
19525;SDS011;9907;42.676;26.348;2023-01-01T09:58:02;23.13;;;17.50;;
19525;SDS011;9907;42.676;26.348;2023-01-01T10:00:27;25.30;;;19.53;;
19525;SDS011;9907;42.676;26.348;2023-01-01T10:09:10;27.83;;;22.00;;
19525;SDS011;9907;42.676;26.348;2023-01-01T10:14:41;32.70;;;24.43;;
19525;SDS011;9907;42.676;26.348;2023-01-01T10:20:14;31.07;;;23.67;;
19525;SDS011;9907;42.676;26.348;2023-01-01T10:22:46;33.17;;;24.13;;
19525;SDS011;9907;42.676;26.348;2023-01-01T10:25:17;26.00;;;21.70;;
19525;SDS011;9907;42.676;26.348;2023-01-01T10:27:52;26.43;;;19.73;;
19525;SDS011;9907;42.676;26.348;2023-01-01T10:30:23;23.20;;;16.57;;
19525;SDS011;9907;42.676;26.348;2023-01-01T10:32:52;22.30;;;17.60;;
19525;SDS011;9907;42.676;26.348;2023-01-01T10:37:47;19.97;;;16.17;;
19525;SDS011;9907;42.676;26.348;2023-01-01T10:40:20;19.60;;;16.77;;
19525;SDS011;9907;42.676;26.348;2023-01-01T10:42:57;22.50;;;17.43;;
19525;SDS011;9907;42.676;26.348;2023-01-01T10:53:24;16.10;;;12.20;;
19525;SDS011;9907;42.676;26.348;2023-01-01T10:56:04;16.17;;;12.37;;
19525;SDS011;9907;42.676;26.348;2023-01-01T11:03:54;15.47;;;12.17;;
19525;SDS011;9907;42.676;26.348;2023-01-01T11:06:21;12.43;;;10.80;;
19525;SDS011;9907;42.676;26.348;2023-01-01T11:08:50;16.83;;;13.03;;
19525;SDS011;9907;42.676;26.348;2023-01-01T11:11:30;17.20;;;13.23;;
19525;SDS011;9907;42.676;26.348;2023-01-01T11:14:05;19.57;;;15.10;;
19525;SDS011;9907;42.676;26.348;2023-01-01T11:16:51;17.60;;;14.13;;
19525;SDS011;9907;42.676;26.348;2023-01-01T11:19:28;15.50;;;12.00;;
19525;SDS011;9907;42.676;26.348;2023-01-01T11:21:56;16.07;;;12.90;;
19525;SDS011;9907;42.676;26.348;2023-01-01T11:24:23;18.00;;;12.17;;
19525;SDS011;9907;42.676;26.348;2023-01-01T11:26:49;15.87;;;13.43;;
19525;SDS011;9907;42.676;26.348;2023-01-01T11:31:52;19.33;;;13.27;;
19525;SDS011;9907;42.676;26.348;2023-01-01T11:34:26;15.83;;;12.97;;
19525;SDS011;9907;42.676;26.348;2023-01-01T11:37:08;19.70;;;11.60;;
19525;SDS011;9907;42.676;26.348;2023-01-01T11:39:42;14.13;;;11.43;;
19525;SDS011;9907;42.676;26.348;2023-01-01T11:42:14;11.83;;;10.37;;
19525;SDS011;9907;42.676;26.348;2023-01-01T11:44:51;14.80;;;10.63;;
19525;SDS011;9907;42.676;26.348;2023-01-01T11:47:22;12.63;;;10.40;;
19525;SDS011;9907;42.676;26.348;2023-01-01T11:52:45;16.40;;;13.07;;
19525;SDS011;9907;42.676;26.348;2023-01-01T11:55:19;18.10;;;14.27;;
19525;SDS011;9907;42.676;26.348;2023-01-01T12:00:31;18.83;;;14.57;;
19525;SDS011;9907;42.676;26.348;2023-01-01T12:03:03;17.87;;;13.90;;
19525;SDS011;9907;42.676;26.348;2023-01-01T12:08:34;15.57;;;13.37;;
19525;SDS011;9907;42.676;26.348;2023-01-01T12:11:22;17.23;;;14.53;;
19525;SDS011;9907;42.676;26.348;2023-01-01T12:14:15;19.00;;;14.33;;
19525;SDS011;9907;42.676;26.348;2023-01-01T12:19:21;18.00;;;14.43;;
19525;SDS011;9907;42.676;26.348;2023-01-01T12:21:51;20.57;;;16.23;;
19525;SDS011;9907;42.676;26.348;2023-01-01T12:24:21;21.83;;;16.67;;
19525;SDS011;9907;42.676;26.348;2023-01-01T12:38:14;24.10;;;17.17;;
19525;SDS011;9907;42.676;26.348;2023-01-01T12:40:54;23.13;;;17.20;;
19525;SDS011;9907;42.676;26.348;2023-01-01T12:54:32;21.03;;;17.40;;
19525;SDS011;9907;42.676;26.348;2023-01-01T12:57:28;22.77;;;17.73;;
19525;SDS011;9907;42.676;26.348;2023-01-01T12:59:59;28.83;;;20.73;;
19525;SDS011;9907;42.676;26.348;2023-01-01T13:02:27;30.07;;;21.70;;
19525;SDS011;9907;42.676;26.348;2023-01-01T13:05:02;25.87;;;20.37;;
19525;SDS011;9907;42.676;26.348;2023-01-01T13:07:38;26.03;;;21.00;;
19525;SDS011;9907;42.676;26.348;2023-01-01T13:10:23;28.00;;;22.23;;
19525;SDS011;9907;42.676;26.348;2023-01-01T13:12:52;32.23;;;24.30;;
19525;SDS011;9907;42.676;26.348;2023-01-01T13:15:53;31.63;;;23.83;;
19525;SDS011;9907;42.676;26.348;2023-01-01T13:20:46;29.53;;;22.03;;
19525;SDS011;9907;42.676;26.348;2023-01-01T13:28:41;25.10;;;19.23;;
19525;SDS011;9907;42.676;26.348;2023-01-01T13:31:06;23.03;;;18.23;;
19525;SDS011;9907;42.676;26.348;2023-01-01T13:33:32;21.93;;;17.40;;
19525;SDS011;9907;42.676;26.348;2023-01-01T13:36:40;22.63;;;17.53;;
19525;SDS011;9907;42.676;26.348;2023-01-01T13:43:49;19.20;;;14.13;;
19525;SDS011;9907;42.676;26.348;2023-01-01T13:46:15;17.07;;;15.20;;
19525;SDS011;9907;42.676;26.348;2023-01-01T13:48:55;20.07;;;16.70;;
19525;SDS011;9907;42.676;26.348;2023-01-01T14:02:56;21.90;;;17.13;;
19525;SDS011;9907;42.676;26.348;2023-01-01T14:05:32;22.47;;;19.03;;
19525;SDS011;9907;42.676;26.348;2023-01-01T14:08:03;23.33;;;19.10;;
19525;SDS011;9907;42.676;26.348;2023-01-01T14:10:29;29.63;;;24.17;;
19525;SDS011;9907;42.676;26.348;2023-01-01T14:15:35;26.97;;;21.30;;
19525;SDS011;9907;42.676;26.348;2023-01-01T14:18:14;26.17;;;18.40;;
19525;SDS011;9907;42.676;26.348;2023-01-01T14:20:46;23.83;;;17.93;;
19525;SDS011;9907;42.676;26.348;2023-01-01T14:25:52;20.40;;;15.70;;
19525;SDS011;9907;42.676;26.348;2023-01-01T14:28:23;18.40;;;14.23;;
19525;SDS011;9907;42.676;26.348;2023-01-01T14:30:51;15.17;;;12.13;;
19525;SDS011;9907;42.676;26.348;2023-01-01T14:33:23;16.80;;;13.47;;
19525;SDS011;9907;42.676;26.348;2023-01-01T14:35:52;16.40;;;14.23;;
19525;SDS011;9907;42.676;26.348;2023-01-01T14:38:32;13.97;;;12.07;;
19525;SDS011;9907;42.676;26.348;2023-01-01T14:41:04;13.43;;;11.57;;
19525;SDS011;9907;42.676;26.348;2023-01-01T14:43:31;12.27;;;10.67;;
19525;SDS011;9907;42.676;26.348;2023-01-01T14:45:56;11.83;;;10.63;;
19525;SDS011;9907;42.676;26.348;2023-01-01T14:48:22;13.77;;;10.83;;
19525;SDS011;9907;42.676;26.348;2023-01-01T14:50:49;12.33;;;10.50;;
19525;SDS011;9907;42.676;26.348;2023-01-01T14:53:17;11.87;;;10.40;;
19525;SDS011;9907;42.676;26.348;2023-01-01T14:55:47;11.63;;;10.43;;
19525;SDS011;9907;42.676;26.348;2023-01-01T15:00:43;11.60;;;9.57;;
19525;SDS011;9907;42.676;26.348;2023-01-01T15:03:13;12.47;;;11.10;;
19525;SDS011;9907;42.676;26.348;2023-01-01T15:05:44;40.20;;;22.87;;
19525;SDS011;9907;42.676;26.348;2023-01-01T15:08:21;125.40;;;73.03;;
19525;SDS011;9907;42.676;26.348;2023-01-01T15:10:48;62.30;;;39.87;;
19525;SDS011;9907;42.676;26.348;2023-01-01T15:13:19;35.83;;;25.57;;
19525;SDS011;9907;42.676;26.348;2023-01-01T15:15:50;27.97;;;20.33;;
19525;SDS011;9907;42.676;26.348;2023-01-01T15:21:02;27.50;;;21.83;;
19525;SDS011;9907;42.676;26.348;2023-01-01T15:23:30;28.33;;;20.97;;
19525;SDS011;9907;42.676;26.348;2023-01-01T15:25:56;85.97;;;49.97;;
19525;SDS011;9907;42.676;26.348;2023-01-01T15:28:21;46.27;;;31.27;;
19525;SDS011;9907;42.676;26.348;2023-01-01T15:30:54;39.70;;;28.53;;
19525;SDS011;9907;42.676;26.348;2023-01-01T15:33:20;33.53;;;24.47;;
19525;SDS011;9907;42.676;26.348;2023-01-01T15:35:50;26.50;;;22.07;;
19525;SDS011;9907;42.676;26.348;2023-01-01T15:38:19;28.40;;;22.50;;
19525;SDS011;9907;42.676;26.348;2023-01-01T15:40:48;25.87;;;22.40;;
19525;SDS011;9907;42.676;26.348;2023-01-01T15:45:50;31.90;;;25.20;;
19525;SDS011;9907;42.676;26.348;2023-01-01T15:48:36;35.47;;;28.43;;
19525;SDS011;9907;42.676;26.348;2023-01-01T15:53:58;32.13;;;27.57;;
19525;SDS011;9907;42.676;26.348;2023-01-01T15:56:29;35.63;;;28.37;;
19525;SDS011;9907;42.676;26.348;2023-01-01T15:59:05;35.07;;;28.37;;
19525;SDS011;9907;42.676;26.348;2023-01-01T16:01:40;37.70;;;30.33;;
19525;SDS011;9907;42.676;26.348;2023-01-01T16:04:20;33.83;;;28.70;;
19525;SDS011;9907;42.676;26.348;2023-01-01T16:06:49;46.57;;;35.77;;
19525;SDS011;9907;42.676;26.348;2023-01-01T16:09:17;45.33;;;34.47;;
19525;SDS011;9907;42.676;26.348;2023-01-01T16:11:44;44.23;;;33.80;;
19525;SDS011;9907;42.676;26.348;2023-01-01T16:14:10;37.40;;;30.83;;
19525;SDS011;9907;42.676;26.348;2023-01-01T16:16:37;44.27;;;31.90;;
19525;SDS011;9907;42.676;26.348;2023-01-01T16:19:03;46.67;;;34.67;;
19525;SDS011;9907;42.676;26.348;2023-01-01T16:21:30;43.97;;;34.93;;
19525;SDS011;9907;42.676;26.348;2023-01-01T16:23:57;43.90;;;33.90;;
19525;SDS011;9907;42.676;26.348;2023-01-01T16:26:23;52.17;;;37.10;;
19525;SDS011;9907;42.676;26.348;2023-01-01T16:28:49;62.87;;;40.80;;
19525;SDS011;9907;42.676;26.348;2023-01-01T16:31:18;68.00;;;49.33;;
19525;SDS011;9907;42.676;26.348;2023-01-01T16:33:58;73.33;;;53.03;;
19525;SDS011;9907;42.676;26.348;2023-01-01T16:36:24;77.30;;;56.93;;
19525;SDS011;9907;42.676;26.348;2023-01-01T16:38:56;87.90;;;63.30;;
19525;SDS011;9907;42.676;26.348;2023-01-01T16:41:22;88.60;;;66.93;;
19525;SDS011;9907;42.676;26.348;2023-01-01T16:43:50;89.87;;;66.03;;
19525;SDS011;9907;42.676;26.348;2023-01-01T16:46:15;93.37;;;63.00;;
19525;SDS011;9907;42.676;26.348;2023-01-01T16:48:41;88.33;;;62.70;;
19525;SDS011;9907;42.676;26.348;2023-01-01T16:51:17;83.23;;;61.03;;
19525;SDS011;9907;42.676;26.348;2023-01-01T16:53:45;80.13;;;59.00;;
19525;SDS011;9907;42.676;26.348;2023-01-01T16:56:11;92.43;;;65.47;;
19525;SDS011;9907;42.676;26.348;2023-01-01T16:58:37;90.10;;;63.13;;
19525;SDS011;9907;42.676;26.348;2023-01-01T17:01:03;93.03;;;65.33;;
19525;SDS011;9907;42.676;26.348;2023-01-01T17:03:29;84.80;;;61.63;;
19525;SDS011;9907;42.676;26.348;2023-01-01T17:05:54;85.83;;;62.10;;